Terminal Aerodrome Forecast
Issued by NWS

Home | Current Version | Previous Version | Text Only | Print | Product List | Glossary On
Versions: 1 2 3 4 5 6 7 8 9 10 11 12 13 14 15
000
FTUS45 KRIW 172326
TAFPNA
TAF
KPNA 172326Z 1800/1824 30005KT P6SM SKC
     FM180800 30005KT 2SM BR SCT005
     FM181000 30004KT 3/4SM BR VV003
     FM181500 30004KT 2SM BR SCT005
     FM181700 30005KT P6SM SCT250
      AMD LTD TO CLD VIS AND WIND=

USA.gov is the U.S. government's official web portal to all federal, state and local government web resources and services.